VVROM weather

Aviosuperficie Ali Calabria
Rombiolo, Calabria, Italy

Public forecast

Using degrees Celsius for public forecast. Weather courtesy of forecast.io.

Closest aviation weather report (METAR) to Aviosuperficie Ali Calabria

Closest report is Lamezia Terme Airport, 21.8 nm (40.3 km) NE. Retrieved 2019/12/15 01:50 UTC (16 minutes ago):

LICA 150150Z 20004KT 9999 SCT030 13/11 Q1017

Closest aviation forecast (TAF) to Aviosuperficie Ali Calabria

Closest forecast is Lamezia Terme Airport, 21.8 nm (40.3 km) NE. Retrieved 2019-12-15 00:00 UTC (2 hours ago):

TAF LICA 142300Z 1500/1524 26012KT 9999 SCT020 BECMG 1515/1517 VRB04KT